createdAt,value
2023-02-18T00:01:48.136Z,13.41
2023-02-18T00:04:51.525Z,13.57
2023-02-18T00:07:55.174Z,13.67
2023-02-18T00:10:58.696Z,13.69
2023-02-18T00:14:04.052Z,13.86
2023-02-18T00:17:07.896Z,13.74
2023-02-18T00:20:12.804Z,13.74
2023-02-18T00:23:16.265Z,13.80
2023-02-18T00:26:20.507Z,13.60
2023-02-18T00:29:24.485Z,13.64
2023-02-18T00:32:27.847Z,13.90
2023-02-18T00:35:32.590Z,13.73
2023-02-18T00:38:35.846Z,13.83
2023-02-18T00:41:39.699Z,13.94
2023-02-18T00:44:43.381Z,14.06
2023-02-18T00:47:46.928Z,13.87
2023-02-18T00:50:50.277Z,13.96
2023-02-18T00:53:54.039Z,13.88
2023-02-18T00:56:57.249Z,13.97
2023-02-18T01:00:00.946Z,13.98
2023-02-18T01:03:09.211Z,13.92
2023-02-18T01:06:13.560Z,13.90
2023-02-18T01:09:16.931Z,13.87
2023-02-18T01:12:21.818Z,13.94
2023-02-18T01:15:25.233Z,13.65
2023-02-18T01:18:31.013Z,13.61
2023-02-18T01:21:35.198Z,13.68
2023-02-18T01:24:38.756Z,13.65
2023-02-18T01:27:42.675Z,13.51
2023-02-18T01:30:46.301Z,13.51
2023-02-18T01:33:49.452Z,13.54
2023-02-18T01:36:52.996Z,13.54
2023-02-18T01:39:56.626Z,13.58
2023-02-18T01:43:00.122Z,13.43
2023-02-18T01:46:08.495Z,13.47
2023-02-18T01:49:16.788Z,13.45
2023-02-18T01:52:25.986Z,13.45
2023-02-18T01:55:29.462Z,13.43
2023-02-18T01:58:33.506Z,13.41
2023-02-18T02:01:39.548Z,13.33
2023-02-18T02:04:44.542Z,13.41
2023-02-18T02:07:51.690Z,13.55
2023-02-18T02:11:04.189Z,13.59
2023-02-18T02:14:49.256Z,13.61
2023-02-18T02:18:23.500Z,13.68
2023-02-18T02:21:45.204Z,13.75
2023-02-18T02:25:13.793Z,13.55
2023-02-18T02:28:45.517Z,13.75
2023-02-18T02:32:05.189Z,13.54
2023-02-18T02:35:16.411Z,13.54
2023-02-18T02:38:36.327Z,13.57
2023-02-18T02:42:06.830Z,13.41
2023-02-18T02:45:22.443Z,13.45
2023-02-18T02:48:28.851Z,13.38
2023-02-18T02:51:58.292Z,13.37
2023-02-18T02:55:08.733Z,13.35
2023-02-18T02:58:19.548Z,13.44
2023-02-18T03:01:46.475Z,13.49
2023-02-18T03:05:29.074Z,13.57
2023-02-18T03:08:45.890Z,13.46
2023-02-18T03:12:04.780Z,13.53
2023-02-18T03:15:23.890Z,13.34
2023-02-18T03:18:40.292Z,13.56
2023-02-18T03:21:59.169Z,13.73
2023-02-18T03:25:03.741Z,13.78
2023-02-18T03:28:12.755Z,13.71
2023-02-18T03:31:21.467Z,13.59
2023-02-18T03:34:33.065Z,13.60
2023-02-18T03:37:43.801Z,13.50
2023-02-18T03:40:50.158Z,13.51
2023-02-18T03:44:00.772Z,13.43
2023-02-18T03:47:04.387Z,13.65
2023-02-18T03:50:09.158Z,13.65
2023-02-18T03:53:12.877Z,13.65
2023-02-18T03:56:18.179Z,13.59
2023-02-18T03:59:22.276Z,13.42
2023-02-18T04:02:26.204Z,13.43
2023-02-18T04:05:29.785Z,13.43
2023-02-18T04:08:33.627Z,13.50
2023-02-18T04:11:39.275Z,13.55
2023-02-18T04:14:42.822Z,13.35
2023-02-18T04:17:46.260Z,13.39
2023-02-18T04:20:49.900Z,13.27
2023-02-18T04:23:53.598Z,13.27
2023-02-18T04:26:56.868Z,13.35
2023-02-18T04:30:00.512Z,13.29
2023-02-18T04:33:04.624Z,13.12
2023-02-18T04:36:08.668Z,13.00
2023-02-18T04:39:12.059Z,13.07
2023-02-18T04:42:15.705Z,12.92
2023-02-18T04:45:19.776Z,12.93
2023-02-18T04:48:23.279Z,12.78
2023-02-18T04:51:26.893Z,12.93
2023-02-18T04:54:30.538Z,12.99
2023-02-18T04:57:34.156Z,12.80
2023-02-18T05:00:38.493Z,12.69
2023-02-18T05:03:42.047Z,12.59
2023-02-18T05:06:45.714Z,12.48
2023-02-18T05:09:49.073Z,12.46
2023-02-18T05:12:52.477Z,12.46
2023-02-18T05:15:56.048Z,12.19
2023-02-18T05:19:00.249Z,12.26
2023-02-18T05:22:03.582Z,12.19
2023-02-18T05:25:07.714Z,12.02
2023-02-18T05:28:10.998Z,11.83
2023-02-18T05:31:14.605Z,11.85
2023-02-18T05:34:19.257Z,11.98
2023-02-18T05:37:24.198Z,11.87
2023-02-18T05:40:28.185Z,11.85
2023-02-18T05:43:52.232Z,11.76
2023-02-18T05:46:55.365Z,11.60
2023-02-18T05:49:58.821Z,11.41
2023-02-18T05:53:02.008Z,11.40
2023-02-18T05:56:05.947Z,11.26
2023-02-18T05:59:09.259Z,11.40
2023-02-18T06:02:12.983Z,11.17
2023-02-18T06:05:16.438Z,11.13
2023-02-18T06:08:20.877Z,11.08
2023-02-18T06:11:24.268Z,11.31
2023-02-18T06:14:27.982Z,11.23
2023-02-18T06:17:31.597Z,11.31
2023-02-18T06:20:39.911Z,11.16
2023-02-18T06:23:44.486Z,11.16
2023-02-18T06:26:47.554Z,11.06
2023-02-18T06:29:51.071Z,11.04
2023-02-18T06:32:54.367Z,11.10
2023-02-18T06:36:07.376Z,11.37
2023-02-18T06:39:10.633Z,11.43
2023-02-18T06:42:14.217Z,11.36
2023-02-18T06:45:17.358Z,11.35
2023-02-18T06:48:21.042Z,11.31
2023-02-18T06:51:24.532Z,11.48
2023-02-18T06:54:28.313Z,11.60
2023-02-18T06:57:31.903Z,11.69
2023-02-18T07:00:36.397Z,11.72
2023-02-18T07:03:39.612Z,11.79
2023-02-18T07:06:43.302Z,11.83
2023-02-18T07:09:46.724Z,12.05
2023-02-18T07:12:50.584Z,12.19
2023-02-18T07:15:54.033Z,12.19
2023-02-18T07:18:59.018Z,12.08
2023-02-18T07:22:02.196Z,12.14
2023-02-18T07:25:07.106Z,12.25
2023-02-18T07:28:10.690Z,12.33
2023-02-18T07:31:14.462Z,12.38
2023-02-18T07:34:17.721Z,12.39
2023-02-18T07:37:21.880Z,12.31
2023-02-18T07:40:24.978Z,12.37
2023-02-18T07:43:28.280Z,12.34
2023-02-18T07:46:31.643Z,12.32
2023-02-18T07:49:35.177Z,12.33
2023-02-18T07:52:38.507Z,12.37
2023-02-18T07:55:51.287Z,12.53
2023-02-18T07:58:55.134Z,12.66
2023-02-18T08:01:58.803Z,12.75
2023-02-18T08:05:02.305Z,12.79
2023-02-18T08:08:05.547Z,12.90
2023-02-18T08:11:18.932Z,12.83
2023-02-18T08:14:22.675Z,12.79
2023-02-18T08:17:26.194Z,12.92
2023-02-18T08:20:30.791Z,13.01
2023-02-18T08:23:34.422Z,13.00
2023-02-18T08:26:37.639Z,12.85
2023-02-18T08:29:41.165Z,12.71
2023-02-18T08:32:44.594Z,12.80
2023-02-18T08:35:51.094Z,12.95
2023-02-18T08:38:54.874Z,13.01
2023-02-18T08:41:58.291Z,13.04
2023-02-18T08:45:01.835Z,13.08
2023-02-18T08:48:16.258Z,13.15
2023-02-18T08:51:23.168Z,13.04
2023-02-18T08:54:30.259Z,13.01
2023-02-18T08:57:33.882Z,13.30
2023-02-18T09:00:39.719Z,13.42
2023-02-18T09:03:42.934Z,13.42
2023-02-18T09:06:46.957Z,13.42
2023-02-18T09:09:51.175Z,13.26
2023-02-18T09:12:54.839Z,13.37
2023-02-18T09:16:04.473Z,13.40
2023-02-18T09:19:10.534Z,13.37
2023-02-18T09:22:14.102Z,13.31
2023-02-18T09:25:18.846Z,13.21
2023-02-18T09:28:22.416Z,13.25
2023-02-18T09:31:30.192Z,13.14
2023-02-18T09:34:35.555Z,13.23
2023-02-18T09:37:41.176Z,13.24
2023-02-18T09:40:50.271Z,13.34
2023-02-18T09:44:00.389Z,13.22
2023-02-18T09:47:20.789Z,13.33
2023-02-18T09:50:27.994Z,13.35
2023-02-18T09:53:31.255Z,13.34
2023-02-18T09:56:40.391Z,13.36
2023-02-18T09:59:45.266Z,13.34
2023-02-18T10:03:19.657Z,13.36
2023-02-18T10:06:27.419Z,13.39
2023-02-18T10:09:42.548Z,13.43
2023-02-18T10:12:47.368Z,13.43
2023-02-18T10:15:52.587Z,13.41
2023-02-18T10:19:15.786Z,13.46
2023-02-18T10:22:21.020Z,13.51
2023-02-18T10:25:26.393Z,13.56
2023-02-18T10:28:30.056Z,13.50
2023-02-18T10:31:41.270Z,13.51
2023-02-18T10:35:34.335Z,13.52
2023-02-18T10:38:59.556Z,13.47
2023-02-18T10:42:11.801Z,13.47
2023-02-18T10:45:18.428Z,13.50
2023-02-18T10:48:22.428Z,13.68
2023-02-18T10:51:29.912Z,13.64
2023-02-18T10:55:06.811Z,13.69
2023-02-18T10:58:25.561Z,13.79
2023-02-18T11:01:31.642Z,13.95
2023-02-18T11:04:39.687Z,13.97
2023-02-18T11:07:50.956Z,13.82
2023-02-18T11:10:56.818Z,13.81
2023-02-18T11:14:06.845Z,13.81
2023-02-18T11:17:25.035Z,13.74
2023-02-18T11:20:38.200Z,13.80
2023-02-18T11:23:48.690Z,13.72
2023-02-18T11:26:51.974Z,13.73
2023-02-18T11:30:06.164Z,13.69
2023-02-18T11:33:18.137Z,13.76
2023-02-18T11:36:35.185Z,13.72
2023-02-18T11:39:44.349Z,13.56
2023-02-18T11:42:47.991Z,13.56
2023-02-18T11:46:13.058Z,13.54
2023-02-18T11:49:24.732Z,13.44
2023-02-18T11:52:33.562Z,13.32
2023-02-18T11:55:38.339Z,13.23
2023-02-18T11:58:45.576Z,13.23
2023-02-18T12:01:57.324Z,13.30
2023-02-18T12:05:11.909Z,13.45
2023-02-18T12:08:28.354Z,13.91
2023-02-18T12:11:40.867Z,13.94
2023-02-18T12:14:44.983Z,13.78
2023-02-18T12:18:16.456Z,13.57
2023-02-18T12:21:33.484Z,13.63
2023-02-18T12:24:58.842Z,13.60
2023-02-18T12:28:12.819Z,13.70
2023-02-18T12:31:29.251Z,13.82
2023-02-18T12:34:52.260Z,14.01
2023-02-18T12:38:33.924Z,14.25
2023-02-18T12:41:37.797Z,14.39
2023-02-18T12:44:45.282Z,14.39
2023-02-18T12:48:22.908Z,14.49
2023-02-18T12:51:58.519Z,14.75
2023-02-18T12:55:12.751Z,14.73
2023-02-18T12:58:22.642Z,14.89
2023-02-18T13:01:34.398Z,15.11
2023-02-18T13:05:16.353Z,15.37
2023-02-18T13:08:25.733Z,16.03
2023-02-18T13:11:42.029Z,15.92
2023-02-18T13:14:49.811Z,15.53
2023-02-18T13:17:57.515Z,15.32
2023-02-18T13:21:06.133Z,15.17
2023-02-18T13:24:17.547Z,14.97
2023-02-18T13:27:36.144Z,15.04
2023-02-18T13:30:49.537Z,15.33
2023-02-18T13:34:12.169Z,15.46
2023-02-18T13:37:55.222Z,15.55
2023-02-18T13:40:59.925Z,15.42
2023-02-18T13:44:09.841Z,15.81
2023-02-18T13:47:43.435Z,15.80
2023-02-18T13:50:48.210Z,15.76
2023-02-18T13:53:52.904Z,16.15
2023-02-18T13:57:06.602Z,16.33
2023-02-18T14:00:24.740Z,16.58
2023-02-18T14:03:36.813Z,16.61
2023-02-18T14:07:18.960Z,16.72
2023-02-18T14:10:34.088Z,16.37
2023-02-18T14:13:55.505Z,16.39
2023-02-18T14:17:18.572Z,16.48
2023-02-18T14:20:33.323Z,16.10
2023-02-18T14:23:38.211Z,16.06
2023-02-18T14:26:49.210Z,15.75
2023-02-18T14:29:53.419Z,15.64
2023-02-18T14:33:01.099Z,15.55
2023-02-18T14:36:16.996Z,15.62
2023-02-18T14:39:43.098Z,15.89
2023-02-18T14:43:08.834Z,16.07
2023-02-18T14:46:17.157Z,15.84
2023-02-18T14:49:41.379Z,15.54
2023-02-18T14:52:54.571Z,15.25
2023-02-18T14:56:04.345Z,15.30
2023-02-18T14:59:08.565Z,15.31
2023-02-18T15:02:27.670Z,15.38
2023-02-18T15:05:34.522Z,15.42
2023-02-18T15:08:40.349Z,15.37
2023-02-18T15:11:49.138Z,15.27
2023-02-18T15:14:56.977Z,15.08
2023-02-18T15:18:04.549Z,15.10
2023-02-18T15:21:16.594Z,14.97
2023-02-18T15:24:41.966Z,14.92
2023-02-18T15:27:48.629Z,14.84
2023-02-18T15:30:54.516Z,14.80
2023-02-18T15:34:00.786Z,14.66
2023-02-18T15:37:14.135Z,14.45
2023-02-18T15:40:19.142Z,14.32
2023-02-18T15:43:27.124Z,14.08
2023-02-18T15:46:32.154Z,13.94
2023-02-18T15:49:39.757Z,13.72
2023-02-18T15:52:44.735Z,13.80
2023-02-18T15:55:51.343Z,13.60
2023-02-18T15:59:18.080Z,13.37
2023-02-18T16:02:25.192Z,13.00
2023-02-18T16:05:30.133Z,12.91
2023-02-18T16:08:34.386Z,12.62
2023-02-18T16:11:50.811Z,12.30
2023-02-18T16:15:01.806Z,12.35
2023-02-18T16:18:07.408Z,12.29
2023-02-18T16:21:20.251Z,12.33
2023-02-18T16:24:30.552Z,12.07
2023-02-18T16:27:37.819Z,11.81
2023-02-18T16:30:46.396Z,11.73
2023-02-18T16:33:50.604Z,11.60
2023-02-18T16:37:15.019Z,11.39
2023-02-18T16:40:32.433Z,11.31
2023-02-18T16:43:36.720Z,11.20
2023-02-18T16:46:42.012Z,11.29
2023-02-18T16:49:50.179Z,11.20
2023-02-18T16:52:54.239Z,11.31
2023-02-18T16:56:01.311Z,11.31
2023-02-18T16:59:06.381Z,11.23
2023-02-18T17:02:19.035Z,11.24
2023-02-18T17:05:32.038Z,11.23
2023-02-18T17:08:37.040Z,11.31
2023-02-18T17:11:41.242Z,11.21
2023-02-18T17:14:47.121Z,11.19
2023-02-18T17:17:52.543Z,11.36
2023-02-18T17:21:00.593Z,11.28
2023-02-18T17:24:05.151Z,11.22
2023-02-18T17:27:11.931Z,11.15
2023-02-18T17:30:18.720Z,11.12
2023-02-18T17:33:25.649Z,11.05
2023-02-18T17:36:29.795Z,11.07
2023-02-18T17:39:34.545Z,11.01
2023-02-18T17:42:38.537Z,10.95
2023-02-18T17:45:51.343Z,10.95
2023-02-18T17:48:56.751Z,11.14
2023-02-18T17:52:03.486Z,11.09
2023-02-18T17:55:22.400Z,10.98
2023-02-18T17:58:29.104Z,10.95
2023-02-18T18:01:35.361Z,10.89
2023-02-18T18:04:40.755Z,10.80
2023-02-18T18:07:46.031Z,10.71
2023-02-18T18:10:59.259Z,10.70
2023-02-18T18:14:05.172Z,10.65
2023-02-18T18:17:14.096Z,10.50
2023-02-18T18:20:19.867Z,10.58
2023-02-18T18:23:25.199Z,10.61
2023-02-18T18:26:32.026Z,10.73
2023-02-18T18:29:37.206Z,10.71
2023-02-18T18:32:42.180Z,10.76
2023-02-18T18:35:50.597Z,10.65
2023-02-18T18:38:57.023Z,10.62
2023-02-18T18:42:07.232Z,10.50
2023-02-18T18:45:25.684Z,10.61
2023-02-18T18:48:32.286Z,10.77
2023-02-18T18:51:37.637Z,10.72
2023-02-18T18:54:43.064Z,10.74
2023-02-18T18:57:48.194Z,10.69
2023-02-18T19:00:59.142Z,10.69
2023-02-18T19:04:05.786Z,10.59
2023-02-18T19:07:11.346Z,10.54
2023-02-18T19:10:17.620Z,10.41
2023-02-18T19:13:27.972Z,10.20
2023-02-18T19:16:40.065Z,10.02
2023-02-18T19:19:47.970Z,9.89
2023-02-18T19:22:53.956Z,9.71
2023-02-18T19:26:00.061Z,9.65
2023-02-18T19:29:06.166Z,9.79
2023-02-18T19:32:15.820Z,11.12
2023-02-18T19:35:21.909Z,11.96
2023-02-18T19:38:28.715Z,12.30
2023-02-18T19:41:33.999Z,12.40
2023-02-18T19:44:41.724Z,12.57
2023-02-18T19:47:48.068Z,12.48
2023-02-18T19:50:55.914Z,12.58
2023-02-18T19:54:01.425Z,12.42
2023-02-18T19:57:14.158Z,12.59
2023-02-18T20:00:26.101Z,12.39
2023-02-18T20:03:31.149Z,12.54
2023-02-18T20:06:35.537Z,12.43
2023-02-18T20:09:41.006Z,12.53
2023-02-18T20:12:51.585Z,12.52
2023-02-18T20:15:58.530Z,12.33
2023-02-18T20:19:03.985Z,12.82
2023-02-18T20:22:10.925Z,12.53
2023-02-18T20:25:16.968Z,12.71
2023-02-18T20:28:25.968Z,13.29
2023-02-18T20:31:33.059Z,13.21
2023-02-18T20:34:39.730Z,13.14
2023-02-18T20:37:44.414Z,13.59
2023-02-18T20:40:50.392Z,13.41
2023-02-18T20:44:00.312Z,13.53
2023-02-18T20:47:05.351Z,13.72
2023-02-18T20:50:11.443Z,13.63
2023-02-18T20:53:17.972Z,13.53
2023-02-18T20:56:24.517Z,13.51
2023-02-18T20:59:30.607Z,13.35
2023-02-18T21:02:37.419Z,13.51
2023-02-18T21:05:42.607Z,13.57
2023-02-18T21:08:50.152Z,13.51
2023-02-18T21:11:57.848Z,13.44
2023-02-18T21:15:03.060Z,13.44
2023-02-18T21:18:08.199Z,13.36
2023-02-18T21:21:15.682Z,13.43
2023-02-18T21:24:23.994Z,13.18
2023-02-18T21:27:28.813Z,13.06
2023-02-18T21:30:40.642Z,13.12
2023-02-18T21:33:44.993Z,13.22
2023-02-18T21:36:49.925Z,13.27
2023-02-18T21:39:54.181Z,13.18
2023-02-18T21:43:00.665Z,13.17
2023-02-18T21:46:17.397Z,13.06
2023-02-18T21:49:22.674Z,13.00
2023-02-18T21:52:28.347Z,12.99
2023-02-18T21:55:33.865Z,13.12
2023-02-18T21:58:38.034Z,13.00
2023-02-18T22:01:42.090Z,12.82
2023-02-18T22:04:47.526Z,12.67
2023-02-18T22:07:52.727Z,12.53
2023-02-18T22:10:56.718Z,12.36
2023-02-18T22:14:01.280Z,11.99
2023-02-18T22:17:05.626Z,11.85
2023-02-18T22:20:09.914Z,11.78
2023-02-18T22:23:13.760Z,11.86
2023-02-18T22:26:16.983Z,11.90
2023-02-18T22:29:21.752Z,11.91
2023-02-18T22:32:25.123Z,11.77
2023-02-18T22:35:28.796Z,11.87
2023-02-18T22:38:35.678Z,11.59
2023-02-18T22:41:40.463Z,11.55
2023-02-18T22:44:43.603Z,11.54
2023-02-18T22:47:47.230Z,11.57
2023-02-18T22:50:50.407Z,11.77
2023-02-18T22:53:56.410Z,11.78
2023-02-18T22:56:59.757Z,11.61
2023-02-18T23:00:09.065Z,11.55
2023-02-18T23:03:14.608Z,11.54
2023-02-18T23:06:19.609Z,11.54
2023-02-18T23:09:24.853Z,11.31
2023-02-18T23:12:28.710Z,11.19
2023-02-18T23:15:32.046Z,11.06
2023-02-18T23:18:36.623Z,11.10
2023-02-18T23:21:41.021Z,11.08
2023-02-18T23:24:46.293Z,11.05
2023-02-18T23:27:49.395Z,11.20
2023-02-18T23:30:54.322Z,11.25
2023-02-18T23:34:00.032Z,11.25
2023-02-18T23:37:04.969Z,11.47
2023-02-18T23:40:08.655Z,11.69
2023-02-18T23:43:12.324Z,11.58
2023-02-18T23:46:19.851Z,11.45
2023-02-18T23:49:25.534Z,11.43
2023-02-18T23:52:28.719Z,11.66
2023-02-18T23:55:32.540Z,11.42
2023-02-18T23:58:36.768Z,11.35
